sensor_id;sensor_type;location;lat;lon;timestamp;pressure;altitude;pressure_sealevel;temperature;humidity
54042;BME280;41156;51.508;5.406;2023-04-05T00:01:20;102337.16;;;2.85;76.16
54042;BME280;41156;51.508;5.406;2023-04-05T00:04:21;102336.81;;;2.78;76.44
54042;BME280;41156;51.508;5.406;2023-04-05T00:07:22;102353.19;;;2.74;77.10
54042;BME280;41156;51.508;5.406;2023-04-05T00:10:23;102346.16;;;2.73;76.72
54042;BME280;41156;51.508;5.406;2023-04-05T00:13:23;102343.75;;;2.70;77.05
54042;BME280;41156;51.508;5.406;2023-04-05T00:16:26;102350.19;;;2.67;77.37
54042;BME280;41156;51.508;5.406;2023-04-05T00:19:26;102342.53;;;2.63;77.78
54042;BME280;41156;51.508;5.406;2023-04-05T00:22:26;102335.03;;;2.56;77.53
54042;BME280;41156;51.508;5.406;2023-04-05T00:25:30;102341.63;;;2.52;77.78
54042;BME280;41156;51.508;5.406;2023-04-05T00:28:31;102344.41;;;2.51;78.35
54042;BME280;41156;51.508;5.406;2023-04-05T00:31:31;102335.09;;;2.45;78.43
54042;BME280;41156;51.508;5.406;2023-04-05T00:34:31;102338.38;;;2.37;78.51
54042;BME280;41156;51.508;5.406;2023-04-05T00:37:32;102335.34;;;2.31;79.06
54042;BME280;41156;51.508;5.406;2023-04-05T00:40:32;102329.41;;;2.27;78.83
54042;BME280;41156;51.508;5.406;2023-04-05T00:43:33;102330.63;;;2.23;79.64
54042;BME280;41156;51.508;5.406;2023-04-05T00:46:34;102322.78;;;2.21;79.80
54042;BME280;41156;51.508;5.406;2023-04-05T00:49:36;102318.88;;;2.14;79.98
54042;BME280;41156;51.508;5.406;2023-04-05T00:52:37;102325.81;;;2.17;80.97
54042;BME280;41156;51.508;5.406;2023-04-05T00:55:37;102322.38;;;2.15;79.72
54042;BME280;41156;51.508;5.406;2023-04-05T00:58:37;102318.41;;;2.09;80.65
54042;BME280;41156;51.508;5.406;2023-04-05T01:01:41;102324.97;;;2.05;80.84
54042;BME280;41156;51.508;5.406;2023-04-05T01:04:43;102326.28;;;1.99;82.45
54042;BME280;41156;51.508;5.406;2023-04-05T01:10:53;102331.63;;;1.88;82.67
54042;BME280;41156;51.508;5.406;2023-04-05T01:13:58;102320.75;;;1.80;83.21
54042;BME280;41156;51.508;5.406;2023-04-05T01:16:58;102324.59;;;1.76;81.65
54042;BME280;41156;51.508;5.406;2023-04-05T01:20:01;102315.28;;;1.70;82.60
54042;BME280;41156;51.508;5.406;2023-04-05T01:30:02;102316.22;;;1.58;83.46
54042;BME280;41156;51.508;5.406;2023-04-05T01:36:26;102304.25;;;1.52;86.16
54042;BME280;41156;51.508;5.406;2023-04-05T01:39:30;102302.88;;;1.46;84.34
54042;BME280;41156;51.508;5.406;2023-04-05T01:42:31;102301.09;;;1.47;83.93
54042;BME280;41156;51.508;5.406;2023-04-05T01:45:31;102299.72;;;1.41;84.10
54042;BME280;41156;51.508;5.406;2023-04-05T01:48:31;102302.66;;;1.38;84.05
54042;BME280;41156;51.508;5.406;2023-04-05T01:51:32;102298.41;;;1.36;84.08
54042;BME280;41156;51.508;5.406;2023-04-05T01:54:32;102295.97;;;1.33;84.77
54042;BME280;41156;51.508;5.406;2023-04-05T01:57:32;102296.09;;;1.31;85.09
54042;BME280;41156;51.508;5.406;2023-04-05T02:00:32;102287.59;;;1.26;85.13
54042;BME280;41156;51.508;5.406;2023-04-05T02:03:33;102289.06;;;1.19;84.71
54042;BME280;41156;51.508;5.406;2023-04-05T02:06:33;102285.41;;;1.20;85.21
54042;BME280;41156;51.508;5.406;2023-04-05T02:09:33;102281.28;;;1.16;86.29
54042;BME280;41156;51.508;5.406;2023-04-05T02:12:33;102280.09;;;1.08;85.41
54042;BME280;41156;51.508;5.406;2023-04-05T02:15:34;102282.25;;;1.03;87.02
54042;BME280;41156;51.508;5.406;2023-04-05T02:18:35;102279.69;;;1.02;87.05
54042;BME280;41156;51.508;5.406;2023-04-05T02:21:37;102279.06;;;0.98;86.70
54042;BME280;41156;51.508;5.406;2023-04-05T02:24:38;102282.94;;;0.94;86.59
54042;BME280;41156;51.508;5.406;2023-04-05T02:27:39;102270.84;;;0.90;87.13
54042;BME280;41156;51.508;5.406;2023-04-05T02:30:39;102272.50;;;0.91;87.86
54042;BME280;41156;51.508;5.406;2023-04-05T02:33:40;102271.06;;;0.87;87.77
54042;BME280;41156;51.508;5.406;2023-04-05T02:36:40;102275.50;;;0.86;87.61
54042;BME280;41156;51.508;5.406;2023-04-05T02:39:41;102269.59;;;0.83;87.53
54042;BME280;41156;51.508;5.406;2023-04-05T02:42:41;102271.41;;;0.82;88.15
54042;BME280;41156;51.508;5.406;2023-04-05T02:45:41;102271.75;;;0.78;87.87
54042;BME280;41156;51.508;5.406;2023-04-05T02:48:41;102274.03;;;0.71;87.89
54042;BME280;41156;51.508;5.406;2023-04-05T02:51:42;102265.53;;;0.66;87.97
54042;BME280;41156;51.508;5.406;2023-04-05T02:54:42;102270.56;;;0.58;88.06
54042;BME280;41156;51.508;5.406;2023-04-05T02:57:43;102269.75;;;0.57;88.40
54042;BME280;41156;51.508;5.406;2023-04-05T03:00:45;102265.25;;;0.58;88.45
54042;BME280;41156;51.508;5.406;2023-04-05T03:03:50;102266.34;;;0.55;88.62
54042;BME280;41156;51.508;5.406;2023-04-05T03:06:50;102264.13;;;0.49;87.68
54042;BME280;41156;51.508;5.406;2023-04-05T03:09:51;102258.44;;;0.42;88.42
54042;BME280;41156;51.508;5.406;2023-04-05T03:12:53;102261.09;;;0.42;89.16
54042;BME280;41156;51.508;5.406;2023-04-05T03:15:53;102250.66;;;0.39;90.00
54042;BME280;41156;51.508;5.406;2023-04-05T03:18:54;102237.25;;;0.41;89.49
54042;BME280;41156;51.508;5.406;2023-04-05T03:21:54;102240.03;;;0.39;89.68
54042;BME280;41156;51.508;5.406;2023-04-05T03:24:55;102234.72;;;0.39;89.72
54042;BME280;41156;51.508;5.406;2023-04-05T03:27:56;102235.78;;;0.36;89.59
54042;BME280;41156;51.508;5.406;2023-04-05T03:30:57;102234.31;;;0.32;90.14
54042;BME280;41156;51.508;5.406;2023-04-05T03:33:57;102239.88;;;0.29;90.01
54042;BME280;41156;51.508;5.406;2023-04-05T03:36:58;102240.69;;;0.30;90.14
54042;BME280;41156;51.508;5.406;2023-04-05T03:39:58;102232.97;;;0.27;90.36
54042;BME280;41156;51.508;5.406;2023-04-05T03:42:58;102234.03;;;0.24;89.46
54042;BME280;41156;51.508;5.406;2023-04-05T03:45:59;102229.66;;;0.23;90.09
54042;BME280;41156;51.508;5.406;2023-04-05T03:49:00;102239.34;;;0.24;91.14
54042;BME280;41156;51.508;5.406;2023-04-05T03:52:00;102228.09;;;0.21;90.78
54042;BME280;41156;51.508;5.406;2023-04-05T03:55:00;102231.81;;;0.18;90.59
54042;BME280;41156;51.508;5.406;2023-04-05T03:58:01;102223.94;;;0.16;90.86
54042;BME280;41156;51.508;5.406;2023-04-05T04:01:01;102224.06;;;0.15;nan
54042;BME280;41156;51.508;5.406;2023-04-05T04:04:01;102219.13;;;0.10;90.02
54042;BME280;41156;51.508;5.406;2023-04-05T04:07:04;102215.69;;;0.08;90.82
54042;BME280;41156;51.508;5.406;2023-04-05T04:10:05;102221.16;;;0.07;91.18
54042;BME280;41156;51.508;5.406;2023-04-05T04:13:05;102220.38;;;0.05;90.93
54042;BME280;41156;51.508;5.406;2023-04-05T04:16:05;102209.97;;;0.02;90.83
54042;BME280;41156;51.508;5.406;2023-04-05T04:19:06;102215.28;;;0.02;90.53
54042;BME280;41156;51.508;5.406;2023-04-05T04:22:06;102215.53;;;-0.02;91.11
54042;BME280;41156;51.508;5.406;2023-04-05T04:25:10;102216.50;;;-0.03;89.89
54042;BME280;41156;51.508;5.406;2023-04-05T04:28:11;102215.75;;;-0.05;90.08
54042;BME280;41156;51.508;5.406;2023-04-05T04:31:11;102213.22;;;-0.06;90.00
54042;BME280;41156;51.508;5.406;2023-04-05T04:34:14;102214.16;;;-0.07;90.40
54042;BME280;41156;51.508;5.406;2023-04-05T04:37:17;102218.63;;;-0.08;90.57
54042;BME280;41156;51.508;5.406;2023-04-05T04:40:18;102216.31;;;-0.12;90.24
54042;BME280;41156;51.508;5.406;2023-04-05T04:43:18;102214.84;;;-0.16;90.92
54042;BME280;41156;51.508;5.406;2023-04-05T04:46:18;102217.50;;;-0.16;90.90
54042;BME280;41156;51.508;5.406;2023-04-05T04:49:19;102219.28;;;-0.17;91.83
54042;BME280;41156;51.508;5.406;2023-04-05T04:52:20;102215.06;;;-0.20;91.17
54042;BME280;41156;51.508;5.406;2023-04-05T04:55:20;102218.78;;;-0.22;91.54
54042;BME280;41156;51.508;5.406;2023-04-05T04:58:24;102217.81;;;-0.21;91.51
54042;BME280;41156;51.508;5.406;2023-04-05T05:01:24;102214.44;;;-0.23;92.42
54042;BME280;41156;51.508;5.406;2023-04-05T05:04:25;102210.81;;;-0.22;91.76
54042;BME280;41156;51.508;5.406;2023-04-05T05:07:25;102217.81;;;-0.21;91.39
54042;BME280;41156;51.508;5.406;2023-04-05T05:10:26;102214.34;;;-0.22;92.45
54042;BME280;41156;51.508;5.406;2023-04-05T05:13:26;102208.16;;;-0.22;92.62
54042;BME280;41156;51.508;5.406;2023-04-05T05:16:26;102217.63;;;-0.18;92.90
54042;BME280;41156;51.508;5.406;2023-04-05T05:19:27;102219.41;;;-0.19;92.52
54042;BME280;41156;51.508;5.406;2023-04-05T05:22:28;102208.78;;;-0.19;93.39
54042;BME280;41156;51.508;5.406;2023-04-05T05:25:28;102215.69;;;-0.16;93.62
54042;BME280;41156;51.508;5.406;2023-04-05T05:28:28;102208.56;;;-0.15;93.38
54042;BME280;41156;51.508;5.406;2023-04-05T05:31:28;102204.09;;;-0.15;93.98
54042;BME280;41156;51.508;5.406;2023-04-05T05:34:31;102203.97;;;-0.13;94.10
54042;BME280;41156;51.508;5.406;2023-04-05T05:37:32;102202.91;;;-0.11;94.17
54042;BME280;41156;51.508;5.406;2023-04-05T05:40:33;102198.31;;;-0.09;94.52
54042;BME280;41156;51.508;5.406;2023-04-05T05:43:33;102201.50;;;-0.04;94.19
54042;BME280;41156;51.508;5.406;2023-04-05T05:46:33;102201.16;;;0.01;94.79
54042;BME280;41156;51.508;5.406;2023-04-05T05:49:34;102206.16;;;0.06;95.29
54042;BME280;41156;51.508;5.406;2023-04-05T05:52:34;102206.44;;;0.14;95.50
54042;BME280;41156;51.508;5.406;2023-04-05T05:55:35;102198.84;;;0.21;94.26
54042;BME280;41156;51.508;5.406;2023-04-05T05:58:38;102200.09;;;0.28;95.40
54042;BME280;41156;51.508;5.406;2023-04-05T06:01:38;102212.81;;;0.35;95.13
54042;BME280;41156;51.508;5.406;2023-04-05T06:04:41;102216.50;;;0.46;94.40
54042;BME280;41156;51.508;5.406;2023-04-05T06:07:42;102217.38;;;0.58;94.48
54042;BME280;41156;51.508;5.406;2023-04-05T06:10:43;102219.47;;;0.77;95.27
54042;BME280;41156;51.508;5.406;2023-04-05T06:13:43;102208.19;;;0.97;95.33
54042;BME280;41156;51.508;5.406;2023-04-05T06:16:44;102217.50;;;1.14;94.51
54042;BME280;41156;51.508;5.406;2023-04-05T06:19:44;102223.47;;;1.29;94.25
54042;BME280;41156;51.508;5.406;2023-04-05T06:22:44;102225.03;;;1.43;93.78
54042;BME280;41156;51.508;5.406;2023-04-05T06:25:45;102226.75;;;1.55;92.20
54042;BME280;41156;51.508;5.406;2023-04-05T06:28:45;102224.19;;;1.65;91.32
54042;BME280;41156;51.508;5.406;2023-04-05T06:31:49;102220.91;;;1.73;90.60
54042;BME280;41156;51.508;5.406;2023-04-05T06:34:49;102216.78;;;1.80;89.64
54042;BME280;41156;51.508;5.406;2023-04-05T06:37:50;102227.66;;;1.88;89.27
54042;BME280;41156;51.508;5.406;2023-04-05T06:40:50;102220.88;;;1.95;89.16
54042;BME280;41156;51.508;5.406;2023-04-05T06:43:51;102213.69;;;2.07;88.21
54042;BME280;41156;51.508;5.406;2023-04-05T06:46:51;102217.03;;;2.20;88.34
54042;BME280;41156;51.508;5.406;2023-04-05T06:49:51;102218.69;;;2.33;87.95
54042;BME280;41156;51.508;5.406;2023-04-05T06:52:51;102215.84;;;2.46;87.54
54042;BME280;41156;51.508;5.406;2023-04-05T06:55:56;102217.47;;;2.90;86.91
54042;BME280;41156;51.508;5.406;2023-04-05T06:58:56;102217.63;;;4.01;86.33
54042;BME280;41156;51.508;5.406;2023-04-05T07:01:58;102226.19;;;5.22;81.53
54042;BME280;41156;51.508;5.406;2023-04-05T07:04:58;102219.38;;;6.38;75.16
54042;BME280;41156;51.508;5.406;2023-04-05T07:08:04;102225.41;;;7.29;81.51
54042;BME280;41156;51.508;5.406;2023-04-05T07:11:04;102217.84;;;8.09;76.22
54042;BME280;41156;51.508;5.406;2023-04-05T07:14:05;102220.28;;;8.78;75.07
54042;BME280;41156;51.508;5.406;2023-04-05T07:17:05;102223.41;;;9.39;74.31
54042;BME280;41156;51.508;5.406;2023-04-05T07:20:06;102229.66;;;9.79;70.57
54042;BME280;41156;51.508;5.406;2023-04-05T07:23:07;102223.34;;;10.18;60.58
54042;BME280;41156;51.508;5.406;2023-04-05T07:26:07;102213.00;;;10.53;67.92
54042;BME280;41156;51.508;5.406;2023-04-05T07:29:08;102217.41;;;10.78;64.12
54042;BME280;41156;51.508;5.406;2023-04-05T07:32:09;102218.09;;;11.09;64.30
54042;BME280;41156;51.508;5.406;2023-04-05T07:35:09;102216.81;;;11.35;63.06
54042;BME280;41156;51.508;5.406;2023-04-05T07:38:10;102212.44;;;11.34;59.74
54042;BME280;41156;51.508;5.406;2023-04-05T07:41:10;102210.38;;;11.36;60.43
54042;BME280;41156;51.508;5.406;2023-04-05T07:44:10;102209.50;;;11.36;61.05
54042;BME280;41156;51.508;5.406;2023-04-05T07:47:11;102207.91;;;11.71;61.58
54042;BME280;41156;51.508;5.406;2023-04-05T07:50:11;102213.13;;;12.02;57.01
54042;BME280;41156;51.508;5.406;2023-04-05T07:53:14;102212.16;;;12.10;58.59
54042;BME280;41156;51.508;5.406;2023-04-05T07:56:14;102205.16;;;12.37;56.51
54042;BME280;41156;51.508;5.406;2023-04-05T07:59:15;102209.66;;;12.52;47.44
54042;BME280;41156;51.508;5.406;2023-04-05T08:02:16;102207.25;;;12.64;56.78
54042;BME280;41156;51.508;5.406;2023-04-05T08:05:16;102205.91;;;12.74;54.61
54042;BME280;41156;51.508;5.406;2023-04-05T08:08:16;102206.47;;;12.70;54.70
54042;BME280;41156;51.508;5.406;2023-04-05T08:11:16;102200.94;;;12.56;53.20
54042;BME280;41156;51.508;5.406;2023-04-05T08:14:17;102207.84;;;12.59;53.03
54042;BME280;41156;51.508;5.406;2023-04-05T08:17:17;102205.94;;;12.81;52.64
54042;BME280;41156;51.508;5.406;2023-04-05T08:20:18;102210.59;;;12.87;50.27
54042;BME280;41156;51.508;5.406;2023-04-05T08:23:18;102209.63;;;12.73;50.19
54042;BME280;41156;51.508;5.406;2023-04-05T08:26:19;102208.38;;;12.26;48.87
54042;BME280;41156;51.508;5.406;2023-04-05T08:29:19;102210.59;;;11.86;51.64
54042;BME280;41156;51.508;5.406;2023-04-05T08:32:20;102206.31;;;11.77;49.80
54042;BME280;41156;51.508;5.406;2023-04-05T08:35:20;102202.72;;;11.55;51.07
54042;BME280;41156;51.508;5.406;2023-04-05T08:38:20;102204.88;;;11.44;47.38
54042;BME280;41156;51.508;5.406;2023-04-05T08:41:23;102209.72;;;11.34;50.18
54042;BME280;41156;51.508;5.406;2023-04-05T08:44:29;102203.72;;;11.09;49.03
54042;BME280;41156;51.508;5.406;2023-04-05T08:47:30;102198.84;;;10.89;49.56
54042;BME280;41156;51.508;5.406;2023-04-05T08:50:31;102201.00;;;10.79;51.19
54042;BME280;41156;51.508;5.406;2023-04-05T08:53:32;102203.00;;;10.77;49.56
54042;BME280;41156;51.508;5.406;2023-04-05T08:56:33;102199.06;;;10.65;49.43
54042;BME280;41156;51.508;5.406;2023-04-05T08:59:37;102198.13;;;10.58;47.71
54042;BME280;41156;51.508;5.406;2023-04-05T09:02:42;102198.25;;;10.64;50.07
54042;BME280;41156;51.508;5.406;2023-04-05T09:05:45;102197.84;;;10.67;48.95
54042;BME280;41156;51.508;5.406;2023-04-05T09:08:47;102193.41;;;10.74;49.90
54042;BME280;41156;51.508;5.406;2023-04-05T09:11:48;102194.13;;;10.68;49.79
54042;BME280;41156;51.508;5.406;2023-04-05T09:14:49;102189.09;;;10.65;49.50
54042;BME280;41156;51.508;5.406;2023-04-05T09:17:49;102190.19;;;10.79;49.98
54042;BME280;41156;51.508;5.406;2023-04-05T09:20:50;102190.38;;;10.92;49.52
54042;BME280;41156;51.508;5.406;2023-04-05T09:23:54;102186.91;;;10.99;47.90
54042;BME280;41156;51.508;5.406;2023-04-05T09:27:11;102186.00;;;11.06;46.85
54042;BME280;41156;51.508;5.406;2023-04-05T09:30:20;102176.13;;;11.14;47.47
54042;BME280;41156;51.508;5.406;2023-04-05T09:33:23;102178.63;;;11.30;47.00
54042;BME280;41156;51.508;5.406;2023-04-05T09:36:23;102182.00;;;11.32;45.85
54042;BME280;41156;51.508;5.406;2023-04-05T09:39:31;102178.16;;;11.41;44.42
54042;BME280;41156;51.508;5.406;2023-04-05T09:42:42;102180.31;;;11.46;45.06
54042;BME280;41156;51.508;5.406;2023-04-05T09:45:45;102183.84;;;11.46;45.32
54042;BME280;41156;51.508;5.406;2023-04-05T09:48:47;102184.03;;;11.60;43.02
54042;BME280;41156;51.508;5.406;2023-04-05T09:51:47;102182.44;;;11.51;43.77
54042;BME280;41156;51.508;5.406;2023-04-05T09:54:51;102174.50;;;11.64;43.59
54042;BME280;41156;51.508;5.406;2023-04-05T09:57:55;102180.16;;;11.84;44.26
54042;BME280;41156;51.508;5.406;2023-04-05T10:00:56;102169.72;;;11.96;43.68
54042;BME280;41156;51.508;5.406;2023-04-05T10:03:57;102165.00;;;11.90;41.03
54042;BME280;41156;51.508;5.406;2023-04-05T10:06:59;102164.84;;;11.91;44.14
54042;BME280;41156;51.508;5.406;2023-04-05T10:10:00;102160.16;;;12.00;43.30
54042;BME280;41156;51.508;5.406;2023-04-05T10:13:04;102158.88;;;12.17;41.62
54042;BME280;41156;51.508;5.406;2023-04-05T10:16:06;102152.78;;;12.37;42.67
54042;BME280;41156;51.508;5.406;2023-04-05T10:19:18;102150.63;;;12.54;39.69
54042;BME280;41156;51.508;5.406;2023-04-05T10:22:43;102146.66;;;12.78;40.67
54042;BME280;41156;51.508;5.406;2023-04-05T10:28:55;102139.66;;;12.90;41.23
54042;BME280;41156;51.508;5.406;2023-04-05T10:32:05;102141.28;;;12.85;37.42
54042;BME280;41156;51.508;5.406;2023-04-05T10:35:09;102136.88;;;12.84;41.00
54042;BME280;41156;51.508;5.406;2023-04-05T10:38:19;102136.78;;;12.99;40.60
54042;BME280;41156;51.508;5.406;2023-04-05T10:41:21;102137.88;;;13.04;39.75
54042;BME280;41156;51.508;5.406;2023-04-05T10:44:22;102137.44;;;13.36;40.93
54042;BME280;41156;51.508;5.406;2023-04-05T10:47:26;102140.34;;;13.34;39.92
54042;BME280;41156;51.508;5.406;2023-04-05T10:50:27;102144.22;;;13.25;37.66
54042;BME280;41156;51.508;5.406;2023-04-05T10:53:29;102123.88;;;13.36;38.46
54042;BME280;41156;51.508;5.406;2023-04-05T10:56:30;102133.31;;;13.53;39.98
54042;BME280;41156;51.508;5.406;2023-04-05T10:59:32;102126.22;;;13.59;40.26
54042;BME280;41156;51.508;5.406;2023-04-05T11:02:33;102125.00;;;13.61;39.18
54042;BME280;41156;51.508;5.406;2023-04-05T11:05:34;102117.47;;;13.63;38.01
54042;BME280;41156;51.508;5.406;2023-04-05T11:08:40;102112.06;;;13.70;36.00
54042;BME280;41156;51.508;5.406;2023-04-05T11:11:43;102112.53;;;13.87;37.79
54042;BME280;41156;51.508;5.406;2023-04-05T11:14:44;102098.94;;;13.87;38.96
54042;BME280;41156;51.508;5.406;2023-04-05T11:18:09;102100.03;;;13.99;36.66
54042;BME280;41156;51.508;5.406;2023-04-05T11:21:10;102095.44;;;14.40;39.64
54042;BME280;41156;51.508;5.406;2023-04-05T11:24:12;102096.50;;;14.46;39.55
54042;BME280;41156;51.508;5.406;2023-04-05T11:27:15;102096.03;;;14.42;38.69
54042;BME280;41156;51.508;5.406;2023-04-05T11:30:44;102099.63;;;14.22;36.94
54042;BME280;41156;51.508;5.406;2023-04-05T11:33:55;102089.56;;;14.36;37.38
54042;BME280;41156;51.508;5.406;2023-04-05T11:36:57;102084.94;;;14.57;39.44
54042;BME280;41156;51.508;5.406;2023-04-05T11:40:38;102087.25;;;14.73;39.09
54042;BME280;41156;51.508;5.406;2023-04-05T11:43:39;102075.94;;;14.83;38.05
54042;BME280;41156;51.508;5.406;2023-04-05T11:46:42;102077.38;;;14.99;39.20
54042;BME280;41156;51.508;5.406;2023-04-05T11:49:42;102076.03;;;15.15;39.44
54042;BME280;41156;51.508;5.406;2023-04-05T11:53:08;102075.13;;;15.34;35.57
54042;BME280;41156;51.508;5.406;2023-04-05T11:56:10;102062.28;;;15.48;38.63
54042;BME280;41156;51.508;5.406;2023-04-05T11:59:12;102053.09;;;15.75;39.06
54042;BME280;41156;51.508;5.406;2023-04-05T12:02:13;102054.16;;;15.73;37.03
54042;BME280;41156;51.508;5.406;2023-04-05T12:05:13;102047.31;;;15.64;37.74
54042;BME280;41156;51.508;5.406;2023-04-05T12:08:14;102043.38;;;15.53;38.00
54042;BME280;41156;51.508;5.406;2023-04-05T12:11:26;102037.41;;;15.38;36.19
54042;BME280;41156;51.508;5.406;2023-04-05T12:14:26;102048.50;;;15.36;37.78
54042;BME280;41156;51.508;5.406;2023-04-05T12:17:49;102041.19;;;15.30;35.56
54042;BME280;41156;51.508;5.406;2023-04-05T12:20:49;102029.22;;;15.38;37.70
54042;BME280;41156;51.508;5.406;2023-04-05T12:23:50;102028.63;;;15.36;36.34
54042;BME280;41156;51.508;5.406;2023-04-05T12:26:50;102031.47;;;15.09;34.75
54042;BME280;41156;51.508;5.406;2023-04-05T12:30:08;102028.97;;;15.08;35.41
54042;BME280;41156;51.508;5.406;2023-04-05T12:33:08;102029.19;;;15.06;35.52
54042;BME280;41156;51.508;5.406;2023-04-05T12:36:09;102024.34;;;15.08;35.04
54042;BME280;41156;51.508;5.406;2023-04-05T12:39:10;102029.59;;;15.03;35.71
54042;BME280;41156;51.508;5.406;2023-04-05T12:42:16;102012.69;;;14.94;36.20
54042;BME280;41156;51.508;5.406;2023-04-05T12:45:16;102012.44;;;15.03;36.88
54042;BME280;41156;51.508;5.406;2023-04-05T12:48:22;102021.78;;;15.20;34.78
54042;BME280;41156;51.508;5.406;2023-04-05T12:51:24;102018.69;;;15.10;36.02
54042;BME280;41156;51.508;5.406;2023-04-05T12:54:26;102012.78;;;15.20;36.17
54042;BME280;41156;51.508;5.406;2023-04-05T12:57:30;102008.13;;;15.27;33.77
54042;BME280;41156;51.508;5.406;2023-04-05T13:00:30;102004.75;;;15.31;36.41
54042;BME280;41156;51.508;5.406;2023-04-05T13:03:32;102000.69;;;15.47;36.14
54042;BME280;41156;51.508;5.406;2023-04-05T13:06:32;101998.06;;;15.66;34.53
54042;BME280;41156;51.508;5.406;2023-04-05T13:09:32;101999.91;;;15.65;35.86
54042;BME280;41156;51.508;5.406;2023-04-05T13:12:35;101984.34;;;15.79;34.62
54042;BME280;41156;51.508;5.406;2023-04-05T13:15:36;101981.78;;;15.84;35.34
54042;BME280;41156;51.508;5.406;2023-04-05T13:18:36;101982.84;;;15.83;32.15
54042;BME280;41156;51.508;5.406;2023-04-05T13:21:37;101982.13;;;15.95;35.84
54042;BME280;41156;51.508;5.406;2023-04-05T13:24:37;101973.59;;;16.09;35.62
54042;BME280;41156;51.508;5.406;2023-04-05T13:27:37;101973.88;;;16.01;34.96
54042;BME280;41156;51.508;5.406;2023-04-05T13:30:37;101975.00;;;15.94;35.37
54042;BME280;41156;51.508;5.406;2023-04-05T13:33:38;101973.78;;;15.89;35.33
54042;BME280;41156;51.508;5.406;2023-04-05T13:36:38;101962.28;;;15.87;34.43
54042;BME280;41156;51.508;5.406;2023-04-05T13:39:38;101959.59;;;15.81;34.52
54042;BME280;41156;51.508;5.406;2023-04-05T13:42:39;101961.88;;;15.52;33.89
54042;BME280;41156;51.508;5.406;2023-04-05T13:45:39;101958.94;;;15.53;34.13
54042;BME280;41156;51.508;5.406;2023-04-05T13:48:40;101945.84;;;15.69;33.96
54042;BME280;41156;51.508;5.406;2023-04-05T13:51:40;101953.75;;;15.45;33.89
54042;BME280;41156;51.508;5.406;2023-04-05T13:54:40;101951.72;;;15.41;34.41
54042;BME280;41156;51.508;5.406;2023-04-05T13:57:41;101947.75;;;15.62;34.20
54042;BME280;41156;51.508;5.406;2023-04-05T14:00:41;101939.75;;;15.67;34.24
54042;BME280;41156;51.508;5.406;2023-04-05T14:03:41;101944.84;;;15.88;34.81
54042;BME280;41156;51.508;5.406;2023-04-05T14:06:43;101939.28;;;16.02;31.98
54042;BME280;41156;51.508;5.406;2023-04-05T14:09:43;101936.22;;;15.91;33.06
54042;BME280;41156;51.508;5.406;2023-04-05T14:12:43;101928.28;;;16.08;33.78
54042;BME280;41156;51.508;5.406;2023-04-05T14:15:44;101926.72;;;16.19;33.14
54042;BME280;41156;51.508;5.406;2023-04-05T14:18:44;101922.47;;;16.05;34.28
54042;BME280;41156;51.508;5.406;2023-04-05T14:21:44;101921.56;;;16.11;33.93
54042;BME280;41156;51.508;5.406;2023-04-05T14:24:45;101916.56;;;16.08;33.61
54042;BME280;41156;51.508;5.406;2023-04-05T14:27:45;101918.69;;;16.06;33.80
54042;BME280;41156;51.508;5.406;2023-04-05T14:30:46;101920.88;;;15.97;34.42
54042;BME280;41156;51.508;5.406;2023-04-05T14:33:46;101916.38;;;15.84;34.18
54042;BME280;41156;51.508;5.406;2023-04-05T14:36:46;101904.25;;;15.80;34.17
54042;BME280;41156;51.508;5.406;2023-04-05T14:39:47;101900.94;;;15.97;34.07
54042;BME280;41156;51.508;5.406;2023-04-05T14:42:47;101905.34;;;15.98;32.64
54042;BME280;41156;51.508;5.406;2023-04-05T14:45:47;101905.72;;;16.01;33.98
54042;BME280;41156;51.508;5.406;2023-04-05T14:48:47;101897.47;;;15.89;34.42
54042;BME280;41156;51.508;5.406;2023-04-05T14:51:48;101894.22;;;15.99;34.42
54042;BME280;41156;51.508;5.406;2023-04-05T14:54:48;101899.69;;;15.99;33.58
54042;BME280;41156;51.508;5.406;2023-04-05T14:57:48;101888.47;;;15.89;31.75
54042;BME280;41156;51.508;5.406;2023-04-05T15:00:49;101883.22;;;15.87;33.93
54042;BME280;41156;51.508;5.406;2023-04-05T15:03:49;101881.41;;;15.81;32.58
54042;BME280;41156;51.508;5.406;2023-04-05T15:06:49;101873.25;;;15.75;32.76
54042;BME280;41156;51.508;5.406;2023-04-05T15:09:50;101870.34;;;15.76;33.96
54042;BME280;41156;51.508;5.406;2023-04-05T15:12:50;101870.34;;;15.76;33.68
54042;BME280;41156;51.508;5.406;2023-04-05T15:15:51;101865.44;;;15.85;33.23
54042;BME280;41156;51.508;5.406;2023-04-05T15:18:52;101863.16;;;15.82;32.96
54042;BME280;41156;51.508;5.406;2023-04-05T15:21:54;101855.09;;;15.43;33.38
54042;BME280;41156;51.508;5.406;2023-04-05T15:24:54;101857.31;;;15.28;33.56
54042;BME280;41156;51.508;5.406;2023-04-05T15:27:55;101851.00;;;15.34;33.50
54042;BME280;41156;51.508;5.406;2023-04-05T15:30:57;101859.06;;;15.47;33.67
54042;BME280;41156;51.508;5.406;2023-04-05T15:33:58;101852.59;;;15.42;34.09
54042;BME280;41156;51.508;5.406;2023-04-05T15:36:58;101852.53;;;15.48;34.55
54042;BME280;41156;51.508;5.406;2023-04-05T15:39:58;101847.41;;;15.59;35.08
54042;BME280;41156;51.508;5.406;2023-04-05T15:42:58;101840.91;;;15.60;33.39
54042;BME280;41156;51.508;5.406;2023-04-05T15:45:59;101846.84;;;15.50;34.12
54042;BME280;41156;51.508;5.406;2023-04-05T15:48:59;101845.81;;;15.26;34.28
54042;BME280;41156;51.508;5.406;2023-04-05T15:51:59;101844.41;;;15.16;34.63
54042;BME280;41156;51.508;5.406;2023-04-05T15:55:00;101838.19;;;15.09;34.67
54042;BME280;41156;51.508;5.406;2023-04-05T15:58:00;101837.31;;;14.84;33.73
54042;BME280;41156;51.508;5.406;2023-04-05T16:01:00;101831.97;;;14.64;34.60
54042;BME280;41156;51.508;5.406;2023-04-05T16:04:01;101836.38;;;14.58;35.77
54042;BME280;41156;51.508;5.406;2023-04-05T16:07:01;101829.09;;;14.52;35.11
54042;BME280;41156;51.508;5.406;2023-04-05T16:10:03;101826.88;;;14.35;34.43